Time;durP1;ratioP1;P1;durP2;ratioP2;P2;SDS_P1;SDS_P2;PMS_P1;PMS_P2;Temp;Humidity;BMP_temperature;BMP_pressure;BME280_temperature;BME280_humidity;BME280_pressure;Samples;Min_cycle;Max_cycle;Signal;HPM_P1;HPM_P2
2023/07/31 00:01:02;;;;;;;2.60;1.00;;;18.40;99.90;;;;;;5062649;28;20612;-78
2023/07/31 00:03:32;;;;;;;2.55;0.90;;;18.50;99.90;;;;;;5071635;28;20700;-77
2023/07/31 00:06:03;;;;;;;0.80;0.50;;;18.60;99.90;;;;;;5071354;28;20234;-78
2023/07/31 00:08:36;;;;;;;3.70;0.88;;;18.60;99.90;;;;;;5055698;28;20197;-81
2023/07/31 00:11:07;;;;;;;1.33;0.80;;;18.60;99.90;;;;;;5059751;28;20561;-78
2023/07/31 00:13:37;;;;;;;2.55;0.60;;;18.70;99.90;;;;;;5064368;28;20215;-79
2023/07/31 00:16:08;;;;;;;1.40;0.63;;;18.80;99.90;;;;;;5055236;28;20192;-78
2023/07/31 00:18:39;;;;;;;0.60;0.60;;;18.80;99.90;;;;;;5057054;28;20197;-79
2023/07/31 00:21:10;;;;;;;1.48;0.60;;;18.90;99.90;;;;;;5057215;28;20200;-79
2023/07/31 00:23:42;;;;;;;2.13;0.60;;;18.90;99.90;;;;;;5069532;28;20197;-77
2023/07/31 00:26:13;;;;;;;2.55;0.70;;;18.90;99.90;;;;;;5057718;28;20284;-78
2023/07/31 00:28:44;;;;;;;1.42;0.60;;;18.90;99.90;;;;;;5065008;28;20189;-78
2023/07/31 00:31:15;;;;;;;1.55;0.60;;;19.10;99.90;;;;;;5070032;28;20248;-78
2023/07/31 00:33:45;;;;;;;1.70;0.93;;;19.10;99.90;;;;;;5056037;28;20600;-79
2023/07/31 00:36:17;;;;;;;0.47;0.43;;;19.20;99.90;;;;;;5064066;28;20566;-77
2023/07/31 00:38:50;;;;;;;3.05;0.88;;;19.30;99.90;;;;;;5060525;28;20199;-74
2023/07/31 00:41:21;;;;;;;1.10;0.60;;;19.40;99.90;;;;;;5066013;28;20288;-77
2023/07/31 00:43:52;;;;;;;1.40;0.47;;;19.40;99.90;;;;;;5064926;28;20545;-79
2023/07/31 00:46:23;;;;;;;1.50;0.60;;;19.40;99.90;;;;;;5067140;28;20190;-77
2023/07/31 00:48:54;;;;;;;1.02;0.52;;;19.40;99.90;;;;;;5059191;28;20619;-80
2023/07/31 00:51:25;;;;;;;1.55;0.70;;;19.50;99.90;;;;;;5062264;28;20201;-80
2023/07/31 00:53:58;;;;;;;0.90;0.50;;;19.70;99.90;;;;;;5066215;28;20189;-80
2023/07/31 00:56:30;;;;;;;1.55;0.45;;;19.80;99.90;;;;;;5058209;28;20201;-78
2023/07/31 00:59:01;;;;;;;1.63;0.50;;;19.70;99.90;;;;;;5068512;28;20201;-76
2023/07/31 01:01:32;;;;;;;2.03;0.50;;;19.80;99.90;;;;;;5068764;28;20203;-79
2023/07/31 01:04:03;;;;;;;0.40;0.30;;;19.80;99.90;;;;;;5074194;28;20189;-78
2023/07/31 01:06:39;;;;;;;2.30;0.50;;;19.80;99.90;;;;;;5069169;28;20189;-80
2023/07/31 01:09:22;;;;;;;0.60;0.60;;;19.90;99.90;;;;;;5072811;28;20205;-80
2023/07/31 01:11:59;;;;;;;3.03;0.60;;;19.80;99.90;;;;;;5066360;28;20204;-76
2023/07/31 01:14:30;;;;;;;1.00;0.40;;;19.80;99.90;;;;;;5055971;28;20197;-77
2023/07/31 01:17:01;;;;;;;0.95;0.50;;;19.90;99.90;;;;;;5055186;28;20206;-81
2023/07/31 01:19:32;;;;;;;0.57;0.40;;;20.00;99.90;;;;;;5064286;28;20204;-79
2023/07/31 01:22:33;;;;;;;1.45;0.60;;;20.10;99.90;;;;;;5059718;28;20296;-78
2023/07/31 01:25:19;;;;;;;2.47;0.55;;;20.20;99.90;;;;;;5065021;28;20189;-80
2023/07/31 01:27:59;;;;;;;2.08;0.50;;;20.40;99.90;;;;;;5055719;28;20262;-79
2023/07/31 01:30:35;;;;;;;1.50;0.70;;;20.50;99.90;;;;;;5055378;28;20296;-77
2023/07/31 01:33:07;;;;;;;0.82;0.45;;;20.50;99.90;;;;;;5055281;28;20236;-76
2023/07/31 01:35:39;;;;;;;1.08;0.50;;;20.60;99.90;;;;;;5066886;28;20292;-76
2023/07/31 01:38:10;;;;;;;1.02;0.40;;;20.70;99.90;;;;;;5075665;28;20203;-78
2023/07/31 01:40:44;;;;;;;3.60;0.70;;;20.60;99.90;;;;;;5069503;28;20661;-80
2023/07/31 01:43:17;;;;;;;2.25;0.50;;;20.50;99.90;;;;;;5055174;28;20221;-79
2023/07/31 01:45:47;;;;;;;0.90;0.40;;;20.50;99.90;;;;;;5068428;28;20192;-77
2023/07/31 01:48:18;;;;;;;0.98;0.40;;;20.60;99.90;;;;;;5056554;28;20206;-81
2023/07/31 01:50:49;;;;;;;0.70;0.50;;;20.80;99.90;;;;;;5073151;28;20201;-80
2023/07/31 01:53:20;;;;;;;1.73;0.40;;;20.90;99.90;;;;;;5070321;28;20556;-80
2023/07/31 01:55:50;;;;;;;1.23;0.50;;;21.00;99.90;;;;;;5055052;28;20197;-79
2023/07/31 01:58:26;;;;;;;1.38;0.40;;;21.10;99.90;;;;;;5057359;28;20202;-77
2023/07/31 02:00:57;;;;;;;1.58;0.30;;;21.10;99.90;;;;;;5054023;28;20239;-79
2023/07/31 02:03:28;;;;;;;2.05;0.35;;;21.20;99.90;;;;;;5055004;28;20247;-79
2023/07/31 02:05:58;;;;;;;2.15;0.43;;;21.10;99.90;;;;;;5056037;28;20197;-77
2023/07/31 02:08:29;;;;;;;4.05;0.60;;;21.20;99.90;;;;;;5067643;28;20193;-79
2023/07/31 02:11:00;;;;;;;2.35;0.40;;;21.30;99.90;;;;;;5069252;28;20614;-78
2023/07/31 02:13:33;;;;;;;0.82;0.60;;;21.30;99.90;;;;;;5074420;28;20553;-79
2023/07/31 02:16:03;;;;;;;3.40;0.50;;;21.30;99.90;;;;;;5062323;28;20193;-79
2023/07/31 02:18:34;;;;;;;1.05;0.57;;;21.30;99.90;;;;;;5060767;28;20274;-80
2023/07/31 02:21:05;;;;;;;2.38;0.57;;;21.40;99.90;;;;;;5074403;28;20637;-79
2023/07/31 02:23:36;;;;;;;1.02;0.50;;;21.50;99.90;;;;;;5071762;28;20216;-79
2023/07/31 02:26:07;;;;;;;4.57;0.93;;;21.40;99.90;;;;;;5074264;28;20288;-80
2023/07/31 02:28:42;;;;;;;1.48;0.55;;;21.30;99.90;;;;;;5074006;28;20573;-80
2023/07/31 02:31:13;;;;;;;1.08;0.55;;;21.40;99.90;;;;;;5074510;28;20228;-79
2023/07/31 02:33:44;;;;;;;1.95;0.60;;;21.60;99.90;;;;;;5074180;28;20278;-80
2023/07/31 02:36:15;;;;;;;1.52;0.50;;;21.60;99.90;;;;;;5057022;28;20185;-81
2023/07/31 02:38:44;;;;;;;1.42;0.50;;;21.60;99.90;;;;;;5058433;28;20586;-83
2023/07/31 02:41:15;;;;;;;1.50;0.70;;;21.70;99.90;;;;;;5062503;28;20200;-82
2023/07/31 02:43:47;;;;;;;0.73;0.50;;;21.80;99.90;;;;;;5056240;28;20209;-79
2023/07/31 02:46:18;;;;;;;1.38;0.50;;;21.80;99.90;;;;;;5065515;28;20185;-80
2023/07/31 02:48:49;;;;;;;1.65;0.50;;;21.90;99.90;;;;;;5054008;28;20194;-81
2023/07/31 02:51:21;;;;;;;2.20;0.60;;;21.80;99.90;;;;;;5054166;28;20190;-79
2023/07/31 02:53:52;;;;;;;2.30;0.60;;;21.90;99.90;;;;;;5052962;28;20203;-79
2023/07/31 02:56:22;;;;;;;4.70;0.50;;;22.00;99.90;;;;;;5054106;28;20194;-79
2023/07/31 02:58:55;;;;;;;1.95;0.60;;;21.90;99.90;;;;;;5073533;28;20193;-78
2023/07/31 03:01:26;;;;;;;2.63;0.60;;;21.80;99.90;;;;;;5074476;28;20637;-78
2023/07/31 03:03:56;;;;;;;0.55;0.40;;;21.90;99.90;;;;;;5073593;28;20240;-81
2023/07/31 03:06:27;;;;;;;0.82;0.60;;;22.10;99.90;;;;;;5067708;28;20221;-82
2023/07/31 03:08:58;;;;;;;1.05;0.50;;;22.10;99.90;;;;;;5056063;28;20193;-81
2023/07/31 03:11:29;;;;;;;2.80;0.60;;;22.20;99.90;;;;;;5053436;28;20533;-82
2023/07/31 03:14:02;;;;;;;1.92;0.60;;;22.20;99.90;;;;;;5057623;28;20196;-80
2023/07/31 03:16:32;;;;;;;1.25;0.50;;;22.40;99.90;;;;;;5062972;28;20284;-80
2023/07/31 03:19:03;;;;;;;1.58;0.60;;;22.40;99.90;;;;;;5053432;28;20189;-81
2023/07/31 03:21:34;;;;;;;2.38;0.40;;;22.40;99.90;;;;;;5053071;28;20564;-81
2023/07/31 03:24:05;;;;;;;2.22;0.60;;;22.40;99.90;;;;;;5059728;28;20219;-82
2023/07/31 03:26:36;;;;;;;0.50;0.50;;;22.30;99.90;;;;;;5066980;28;20201;-84
2023/07/31 03:29:09;;;;;;;1.13;0.50;;;22.40;99.90;;;;;;5073058;28;20719;-79
2023/07/31 03:31:39;;;;;;;2.53;0.70;;;22.50;99.90;;;;;;5073190;28;20189;-81
2023/07/31 03:34:10;;;;;;;2.65;0.60;;;22.50;99.90;;;;;;5059431;28;20209;-79
2023/07/31 03:36:41;;;;;;;0.70;0.43;;;22.50;99.90;;;;;;5052773;28;20563;-80
2023/07/31 03:39:12;;;;;;;1.50;0.50;;;22.50;99.90;;;;;;5059171;28;20203;-80
2023/07/31 03:41:43;;;;;;;3.28;0.68;;;22.50;99.90;;;;;;5066629;28;20213;-81
2023/07/31 03:44:15;;;;;;;1.60;0.60;;;22.40;99.90;;;;;;5067361;28;20677;-80
2023/07/31 03:46:46;;;;;;;2.17;0.70;;;22.30;99.90;;;;;;5061378;28;20189;-80
2023/07/31 03:49:17;;;;;;;2.83;0.50;;;22.30;99.90;;;;;;5056398;28;20201;-79
2023/07/31 03:51:48;;;;;;;2.17;0.45;;;22.40;99.90;;;;;;5054223;28;20200;-82
2023/07/31 03:54:18;;;;;;;1.45;0.50;;;22.50;99.90;;;;;;5052916;28;20665;-81
2023/07/31 03:56:49;;;;;;;1.45;0.52;;;22.50;99.90;;;;;;5071910;28;20275;-80
2023/07/31 03:59:22;;;;;;;0.60;0.38;;;22.60;99.90;;;;;;5072870;28;20279;-80
2023/07/31 04:01:52;;;;;;;2.17;0.80;;;22.60;99.90;;;;;;5065309;28;20216;-80
2023/07/31 04:04:23;;;;;;;3.63;0.50;;;22.60;99.90;;;;;;5068256;28;20213;-82
2023/07/31 04:06:54;;;;;;;3.30;0.70;;;22.60;99.90;;;;;;5065997;28;20188;-82
2023/07/31 04:09:25;;;;;;;3.45;0.50;;;22.60;99.90;;;;;;5069825;28;20740;-83
2023/07/31 04:11:56;;;;;;;0.93;0.40;;;22.50;99.90;;;;;;5054682;28;20276;-81
2023/07/31 04:14:28;;;;;;;2.85;0.70;;;22.60;99.90;;;;;;5064280;28;20201;-81
2023/07/31 04:16:59;;;;;;;3.47;1.00;;;22.60;99.90;;;;;;5063606;28;20554;-80
2023/07/31 04:19:30;;;;;;;5.25;1.40;;;22.60;99.90;;;;;;5057634;28;20287;-81
2023/07/31 04:22:01;;;;;;;3.10;0.60;;;22.50;99.90;;;;;;5053002;28;20593;-81
2023/07/31 04:24:31;;;;;;;1.70;0.47;;;22.50;99.90;;;;;;5054064;28;20217;-81
2023/07/31 04:27:02;;;;;;;0.77;0.50;;;22.60;99.90;;;;;;5065315;28;20207;-81
2023/07/31 04:29:35;;;;;;;3.90;0.50;;;22.50;99.90;;;;;;5068770;28;20193;-80
2023/07/31 04:32:06;;;;;;;2.83;1.25;;;22.50;99.90;;;;;;5058824;28;20232;-81
2023/07/31 04:34:37;;;;;;;1.90;0.70;;;22.60;99.90;;;;;;5074085;28;20229;-81
2023/07/31 04:37:07;;;;;;;1.30;0.40;;;22.70;99.90;;;;;;5063319;28;20254;-83
2023/07/31 04:39:38;;;;;;;0.75;0.50;;;22.70;99.90;;;;;;5052990;28;20675;-82
2023/07/31 04:42:09;;;;;;;1.33;0.50;;;22.70;99.90;;;;;;5065816;28;20204;-89
2023/07/31 04:44:42;;;;;;;1.95;0.40;;;22.70;99.90;;;;;;5068090;28;20300;-81
2023/07/31 04:47:13;;;;;;;2.50;0.50;;;22.80;99.90;;;;;;5056462;28;20292;-78
2023/07/31 04:49:43;;;;;;;1.05;0.47;;;22.70;99.90;;;;;;5067984;28;20286;-81
2023/07/31 04:52:14;;;;;;;1.02;0.50;;;22.70;99.90;;;;;;5056216;28;20239;-83
2023/07/31 04:54:45;;;;;;;1.50;0.40;;;22.80;99.90;;;;;;5055903;28;20204;-80
2023/07/31 04:57:16;;;;;;;2.00;0.60;;;22.70;99.90;;;;;;5060980;28;20211;-81
2023/07/31 04:59:48;;;;;;;1.35;0.60;;;22.60;99.90;;;;;;5066144;28;20346;-84
2023/07/31 05:02:19;;;;;;;1.65;0.50;;;22.50;99.90;;;;;;5060457;28;20225;-83
2023/07/31 05:04:50;;;;;;;2.22;0.45;;;22.50;99.90;;;;;;5053842;28;20224;-83
2023/07/31 05:07:21;;;;;;;2.33;0.70;;;22.60;99.90;;;;;;5056085;28;20204;-87
2023/07/31 05:09:52;;;;;;;0.50;0.30;;;22.50;99.90;;;;;;5064980;28;20207;-82
2023/07/31 05:12:22;;;;;;;1.42;0.52;;;22.60;99.90;;;;;;5058937;28;20232;-85
2023/07/31 05:14:55;;;;;;;1.33;0.40;;;22.50;99.90;;;;;;5055279;28;20208;-85
2023/07/31 05:17:26;;;;;;;0.50;0.30;;;22.50;99.90;;;;;;5057625;28;20287;-85
2023/07/31 05:19:57;;;;;;;1.13;0.32;;;22.50;99.90;;;;;;5057683;28;20284;-86
2023/07/31 05:22:27;;;;;;;0.68;0.50;;;22.50;99.90;;;;;;5056958;28;20205;-82
2023/07/31 05:24:58;;;;;;;0.85;0.50;;;22.50;99.90;;;;;;5069465;28;20212;-83
2023/07/31 05:27:29;;;;;;;1.50;0.57;;;22.40;99.90;;;;;;5058391;28;20640;-81
2023/07/31 05:30:02;;;;;;;2.20;0.52;;;22.40;99.90;;;;;;5060212;28;20263;-77
2023/07/31 05:32:33;;;;;;;1.42;0.68;;;22.40;99.90;;;;;;5082543;28;20223;-79
2023/07/31 05:35:04;;;;;;;2.92;0.70;;;22.40;99.90;;;;;;5075030;28;20279;-80
2023/07/31 05:37:35;;;;;;;2.60;0.50;;;22.40;99.90;;;;;;5080233;28;20188;-80
2023/07/31 05:40:06;;;;;;;2.13;0.60;;;22.40;99.90;;;;;;5095247;28;20727;-82
2023/07/31 05:42:38;;;;;;;1.33;0.40;;;22.50;99.90;;;;;;5089770;28;20275;-81
2023/07/31 05:45:13;;;;;;;3.63;0.70;;;22.50;99.90;;;;;;5072949;28;20188;-80
2023/07/31 05:47:44;;;;;;;1.52;0.40;;;22.50;99.90;;;;;;5087850;28;20197;-79
2023/07/31 05:50:15;;;;;;;2.45;0.60;;;22.40;99.90;;;;;;5092483;28;20188;-80
2023/07/31 05:52:46;;;;;;;0.90;0.63;;;22.40;99.90;;;;;;5074187;28;20208;-81
2023/07/31 05:55:16;;;;;;;1.20;0.52;;;22.40;99.90;;;;;;5062948;28;20208;-80
2023/07/31 05:57:47;;;;;;;1.25;0.50;;;22.40;99.90;;;;;;5073930;28;20200;-75
2023/07/31 06:00:20;;;;;;;1.15;0.50;;;22.40;99.90;;;;;;5066792;28;20189;-81
2023/07/31 06:02:51;;;;;;;0.90;0.35;;;22.40;99.90;;;;;;5084101;28;20313;-76
2023/07/31 06:05:26;;;;;;;1.48;0.50;;;22.30;99.90;;;;;;5076881;28;20201;-76
2023/07/31 06:07:56;;;;;;;1.85;0.38;;;22.20;99.90;;;;;;5054879;28;20211;-77
2023/07/31 06:10:28;;;;;;;0.88;0.40;;;22.20;99.90;;;;;;5065923;28;20199;-76
2023/07/31 06:12:59;;;;;;;3.20;0.50;;;22.20;99.90;;;;;;5072779;28;20201;-79
2023/07/31 06:15:32;;;;;;;1.25;0.60;;;22.10;99.90;;;;;;5065830;28;20193;-79
2023/07/31 06:18:03;;;;;;;1.15;0.50;;;22.10;99.90;;;;;;5068781;28;20199;-79
2023/07/31 06:20:33;;;;;;;0.85;0.30;;;22.00;99.90;;;;;;5074323;28;20200;-80
2023/07/31 06:23:04;;;;;;;0.80;0.43;;;21.90;99.90;;;;;;5057285;28;20204;-81
2023/07/31 06:25:35;;;;;;;2.28;0.50;;;21.90;99.90;;;;;;5061150;28;20265;-81
2023/07/31 06:28:06;;;;;;;2.45;0.50;;;21.80;99.90;;;;;;5059011;28;20203;-82
2023/07/31 06:30:38;;;;;;;1.83;0.50;;;21.80;99.90;;;;;;5067379;28;20276;-82
2023/07/31 06:33:09;;;;;;;0.22;0.22;;;21.70;99.90;;;;;;5069485;28;20213;-82
2023/07/31 06:35:40;;;;;;;0.80;0.55;;;21.60;99.90;;;;;;5074017;28;20614;-81
2023/07/31 06:38:11;;;;;;;1.45;0.40;;;21.60;99.90;;;;;;5073533;28;20626;-76
2023/07/31 06:40:41;;;;;;;1.90;0.50;;;21.50;99.90;;;;;;5055380;28;20201;-81
2023/07/31 06:43:12;;;;;;;1.10;0.40;;;21.40;99.90;;;;;;5057511;28;20207;-83
2023/07/31 06:45:45;;;;;;;2.80;0.80;;;21.40;99.90;;;;;;5070778;28;20203;-82
2023/07/31 06:48:16;;;;;;;2.20;0.50;;;21.30;99.90;;;;;;5070027;28;20652;-82
2023/07/31 06:50:48;;;;;;;1.02;0.60;;;21.10;99.90;;;;;;5065052;28;20196;-78
2023/07/31 06:53:18;;;;;;;1.20;0.60;;;21.00;99.90;;;;;;5057956;28;20210;-75
2023/07/31 06:55:51;;;;;;;1.45;0.45;;;20.80;99.90;;;;;;5054328;28;20194;-77
2023/07/31 06:58:22;;;;;;;1.58;0.50;;;20.70;99.90;;;;;;5053207;28;20240;-75
2023/07/31 07:00:55;;;;;;;1.05;0.40;;;20.60;99.90;;;;;;5073491;28;20283;-75
2023/07/31 07:03:25;;;;;;;3.30;0.68;;;20.50;99.90;;;;;;5056907;28;20225;-75
2023/07/31 07:05:56;;;;;;;1.40;0.57;;;20.40;99.90;;;;;;5055505;28;20198;-82
2023/07/31 07:08:28;;;;;;;1.10;0.50;;;20.30;99.90;;;;;;5053235;28;20194;-80
2023/07/31 07:10:59;;;;;;;3.63;0.90;;;20.20;99.90;;;;;;5057731;28;20371;-82
2023/07/31 07:13:29;;;;;;;1.50;0.60;;;20.10;99.90;;;;;;5057981;28;20204;-82
2023/07/31 07:16:02;;;;;;;1.33;1.00;;;20.00;99.90;;;;;;5067779;28;20559;-82
2023/07/31 07:18:33;;;;;;;1.92;1.40;;;19.80;99.90;;;;;;5058357;28;20208;-82
2023/07/31 07:21:03;;;;;;;2.47;1.10;;;19.70;99.90;;;;;;5071465;28;20671;-82
2023/07/31 07:23:34;;;;;;;3.05;1.30;;;19.60;99.90;;;;;;5073311;28;20197;-81
2023/07/31 07:26:05;;;;;;;3.35;1.00;;;19.40;99.90;;;;;;5071486;28;20288;-81
2023/07/31 07:28:37;;;;;;;2.42;0.80;;;19.30;99.90;;;;;;5073100;28;20193;-81
2023/07/31 07:31:09;;;;;;;1.35;0.80;;;19.10;99.90;;;;;;5072426;28;20637;-82
2023/07/31 07:33:40;;;;;;;3.30;0.90;;;19.00;99.90;;;;;;5060090;28;20197;-81
2023/07/31 07:36:12;;;;;;;3.15;0.85;;;18.90;99.90;;;;;;5054385;28;20201;-82
2023/07/31 07:38:43;;;;;;;1.52;0.90;;;18.80;99.90;;;;;;5052971;28;20240;-81
2023/07/31 07:41:14;;;;;;;2.72;0.90;;;18.70;99.90;;;;;;5063074;28;20205;-80
2023/07/31 07:43:44;;;;;;;5.28;1.33;;;18.60;99.90;;;;;;5056775;28;20217;-81
2023/07/31 07:46:17;;;;;;;1.55;0.90;;;18.50;99.90;;;;;;5056499;28;20208;-82
2023/07/31 07:48:48;;;;;;;3.13;0.90;;;18.40;99.90;;;;;;5052975;28;20547;-81
2023/07/31 07:51:19;;;;;;;4.32;1.02;;;18.30;99.90;;;;;;5054070;28;20200;-80
2023/07/31 07:53:49;;;;;;;4.28;1.15;;;18.10;99.90;;;;;;5064181;28;20718;-81
2023/07/31 07:56:20;;;;;;;2.53;1.08;;;18.10;99.90;;;;;;5064890;28;20197;-80
2023/07/31 07:58:53;;;;;;;4.78;1.30;;;18.00;99.90;;;;;;5078104;28;20198;-81
2023/07/31 08:01:26;;;;;;;3.38;1.20;;;17.90;99.90;;;;;;5064005;28;20194;-81
2023/07/31 08:03:56;;;;;;;3.08;1.30;;;17.80;99.90;;;;;;5055143;28;20244;-80
2023/07/31 08:06:27;;;;;;;2.08;1.10;;;17.80;99.90;;;;;;5059591;28;20288;-80
2023/07/31 08:08:58;;;;;;;2.28;1.10;;;17.70;99.90;;;;;;5061924;28;20197;-80
2023/07/31 08:11:29;;;;;;;1.73;1.10;;;17.70;99.90;;;;;;5056460;28;20201;-79
2023/07/31 08:13:59;;;;;;;3.42;1.10;;;17.60;99.90;;;;;;5060626;28;20189;-79
2023/07/31 08:16:32;;;;;;;1.40;0.98;;;17.50;99.90;;;;;;5072540;28;20200;-80
2023/07/31 08:19:03;;;;;;;1.52;0.90;;;17.50;99.90;;;;;;5060463;28;20285;-79
2023/07/31 08:21:34;;;;;;;1.80;1.02;;;17.50;99.90;;;;;;5059253;28;20197;-80
2023/07/31 08:24:05;;;;;;;1.98;0.98;;;17.40;99.90;;;;;;5068871;28;20691;-80
2023/07/31 08:26:36;;;;;;;2.88;1.10;;;17.40;99.90;;;;;;5059450;28;20200;-80
2023/07/31 08:29:07;;;;;;;2.30;1.48;;;17.40;99.90;;;;;;5053421;28;20193;-80
2023/07/31 08:31:39;;;;;;;3.17;1.30;;;17.40;99.90;;;;;;5051796;28;20257;-81
2023/07/31 08:34:10;;;;;;;4.85;1.52;;;17.30;99.90;;;;;;5057288;28;20664;-80
2023/07/31 08:36:41;;;;;;;2.33;1.77;;;17.30;99.90;;;;;;5068153;28;20660;-78
2023/07/31 08:39:12;;;;;;;2.60;1.50;;;17.20;99.90;;;;;;5061404;28;20566;-80
2023/07/31 08:41:42;;;;;;;3.70;1.63;;;17.10;99.90;;;;;;5065802;28;20207;-80
2023/07/31 08:44:14;;;;;;;2.70;1.63;;;17.10;99.90;;;;;;5072241;28;20221;-80
2023/07/31 08:46:48;;;;;;;5.15;1.98;;;17.00;99.90;;;;;;5065251;28;20201;-80
2023/07/31 08:49:22;;;;;;;2.25;1.60;;;17.00;99.90;;;;;;5060016;28;20283;-80
2023/07/31 08:51:54;;;;;;;4.40;1.98;;;16.90;99.90;;;;;;5070916;28;20647;-80
2023/07/31 08:54:29;;;;;;;3.90;1.83;;;16.90;99.90;;;;;;5067957;28;20207;-80
2023/07/31 08:57:01;;;;;;;4.85;2.25;;;16.80;99.90;;;;;;5075460;28;20288;-80
2023/07/31 08:59:34;;;;;;;3.60;1.88;;;16.70;99.90;;;;;;5074907;28;20257;-79
2023/07/31 09:02:10;;;;;;;3.10;2.00;;;16.60;99.90;;;;;;5064264;28;20312;-80
2023/07/31 09:04:41;;;;;;;4.80;2.42;;;16.50;99.90;;;;;;5061321;28;20227;-80
2023/07/31 09:07:13;;;;;;;3.33;2.13;;;16.50;99.90;;;;;;5074861;28;20205;-76
2023/07/31 09:09:44;;;;;;;5.07;2.40;;;16.50;99.90;;;;;;5071548;28;20295;-79
2023/07/31 09:12:15;;;;;;;3.50;1.95;;;16.40;99.90;;;;;;5062225;28;20201;-79
2023/07/31 09:14:47;;;;;;;4.32;2.25;;;16.40;99.90;;;;;;5061756;28;20296;-77
2023/07/31 09:17:32;;;;;;;2.95;2.08;;;16.30;99.90;;;;;;5067943;28;20202;-80
2023/07/31 09:20:17;;;;;;;3.47;1.75;;;16.30;99.90;;;;;;5072911;28;20208;-79
2023/07/31 09:22:49;;;;;;;3.60;2.28;;;16.20;99.90;;;;;;5070621;28;20201;-79
2023/07/31 09:25:20;;;;;;;4.20;2.00;;;16.20;99.90;;;;;;5075322;28;20266;-79
2023/07/31 09:27:53;;;;;;;4.97;1.70;;;16.20;99.90;;;;;;5074379;28;20597;-78
2023/07/31 09:30:24;;;;;;;4.00;1.92;;;16.20;99.90;;;;;;5067515;28;20201;-78
2023/07/31 09:33:08;;;;;;;3.55;1.90;;;16.10;99.90;;;;;;5058530;28;20231;-79
2023/07/31 09:35:40;;;;;;;4.07;1.80;;;16.10;99.90;;;;;;5066068;28;20287;-79
2023/07/31 09:38:13;;;;;;;3.92;2.03;;;16.10;99.90;;;;;;5064317;28;20193;-79
2023/07/31 09:40:45;;;;;;;5.30;2.22;;;16.10;99.90;;;;;;5058072;28;20202;-79
2023/07/31 09:43:19;;;;;;;3.55;1.92;;;16.10;99.90;;;;;;5067740;28;20197;-79
2023/07/31 09:45:50;;;;;;;6.03;2.20;;;16.00;99.90;;;;;;5072742;28;20324;-79
2023/07/31 09:48:26;;;;;;;3.67;1.92;;;16.00;99.90;;;;;;5071427;28;20190;-79
2023/07/31 09:50:57;;;;;;;5.43;2.00;;;16.00;99.90;;;;;;5061238;28;20203;-78
2023/07/31 09:53:32;;;;;;;3.17;1.95;;;15.90;99.90;;;;;;5067604;28;20288;-79
2023/07/31 09:56:03;;;;;;;4.10;1.75;;;15.90;99.90;;;;;;5064376;28;20212;-79
2023/07/31 09:58:37;;;;;;;3.22;1.80;;;15.90;99.90;;;;;;5060965;28;20573;-79
2023/07/31 10:01:08;;;;;;;2.78;1.95;;;15.90;99.90;;;;;;5065342;28;20213;-78
2023/07/31 10:03:41;;;;;;;5.03;1.95;;;15.90;99.90;;;;;;5062083;28;20262;-79
2023/07/31 10:06:19;;;;;;;4.72;2.30;;;15.90;99.90;;;;;;5063051;28;20544;-79
2023/07/31 10:08:52;;;;;;;5.18;2.28;;;16.00;99.90;;;;;;5067575;28;20248;-79
2023/07/31 10:11:24;;;;;;;4.68;2.60;;;16.00;99.90;;;;;;5074255;28;20197;-79
2023/07/31 10:13:56;;;;;;;4.70;2.60;;;16.00;99.90;;;;;;5061513;28;20204;-79
2023/07/31 10:16:27;;;;;;;8.88;2.65;;;16.10;99.90;;;;;;5074165;28;20201;-79
2023/07/31 10:19:00;;;;;;;6.20;2.85;;;16.20;99.90;;;;;;5055475;28;20662;-79
2023/07/31 10:21:34;;;;;;;6.60;2.20;;;16.30;99.90;;;;;;5064482;28;20196;-79
2023/07/31 10:24:07;;;;;;;4.10;2.42;;;16.50;99.90;;;;;;5074356;28;20206;-78
2023/07/31 10:26:39;;;;;;;3.22;2.00;;;16.70;99.90;;;;;;5073993;28;20197;-78
2023/07/31 10:29:10;;;;;;;3.88;2.20;;;16.90;99.90;;;;;;5071686;28;20588;-77
2023/07/31 10:31:42;;;;;;;6.55;2.67;;;17.00;99.90;;;;;;5069498;28;20296;-78
2023/07/31 10:34:16;;;;;;;5.07;2.58;;;17.00;99.90;;;;;;5061213;28;20207;-78
2023/07/31 10:36:46;;;;;;;5.70;2.50;;;17.00;99.90;;;;;;5069134;28;20203;-78
2023/07/31 10:39:38;;;;;;;3.78;2.30;;;16.90;99.90;;;;;;5055264;28;20224;-77
2023/07/31 10:42:16;;;;;;;3.40;2.20;;;16.90;99.90;;;;;;5073330;28;20560;-78
2023/07/31 10:44:52;;;;;;;2.92;2.33;;;16.90;99.90;;;;;;5060706;28;20217;-78
2023/07/31 10:47:23;;;;;;;4.88;2.45;;;16.80;99.90;;;;;;5064740;28;20221;-78
2023/07/31 10:49:55;;;;;;;3.65;2.10;;;16.70;99.90;;;;;;5073692;28;20649;-78
2023/07/31 10:52:26;;;;;;;4.22;1.67;;;16.60;99.90;;;;;;5069313;28;20554;-78
2023/07/31 10:55:34;;;;;;;2.88;1.80;;;16.60;99.90;;;;;;5059460;28;20198;-77
2023/07/31 10:58:10;;;;;;;2.85;1.40;;;16.50;99.90;;;;;;5044300;28;20670;-78
2023/07/31 11:00:42;;;;;;;3.60;1.52;;;16.50;99.90;;;;;;5073190;28;20279;-78
2023/07/31 11:03:13;;;;;;;2.67;1.40;;;16.50;99.90;;;;;;5073434;28;20233;-77
2023/07/31 11:06:03;;;;;;;2.22;1.33;;;16.40;99.90;;;;;;5068199;28;20212;-78
2023/07/31 11:08:34;;;;;;;2.42;1.30;;;16.30;99.90;;;;;;5061515;28;20274;-78
2023/07/31 11:11:13;;;;;;;3.13;1.63;;;16.30;99.90;;;;;;5069278;28;20197;-78
2023/07/31 11:13:49;;;;;;;3.45;1.40;;;16.30;99.90;;;;;;5071386;28;20654;-79
2023/07/31 11:16:20;;;;;;;3.10;1.25;;;16.20;99.90;;;;;;5071647;28;20196;-78
2023/07/31 11:18:53;;;;;;;1.38;1.08;;;16.20;99.90;;;;;;5073302;28;20189;-78
2023/07/31 11:21:27;;;;;;;2.67;1.00;;;16.10;99.90;;;;;;5070264;28;20653;-78
2023/07/31 11:24:00;;;;;;;2.00;1.13;;;16.10;99.90;;;;;;5053880;28;20233;-79
2023/07/31 11:26:31;;;;;;;1.85;1.05;;;16.10;99.90;;;;;;5065100;28;20216;-78
2023/07/31 11:29:02;;;;;;;1.50;1.10;;;16.10;99.90;;;;;;5070122;28;20204;-78
2023/07/31 11:31:39;;;;;;;0.90;0.80;;;16.10;99.90;;;;;;5071882;28;20212;-79
2023/07/31 11:34:10;;;;;;;3.53;1.00;;;16.00;99.90;;;;;;5063833;28;20194;-78
2023/07/31 11:36:42;;;;;;;2.80;1.13;;;15.90;99.90;;;;;;5071102;28;20201;-78
2023/07/31 11:39:13;;;;;;;3.90;1.10;;;15.70;99.90;;;;;;5072533;28;20208;-78
2023/07/31 11:41:45;;;;;;;2.63;1.10;;;15.60;99.90;;;;;;5072949;28;20199;-77
2023/07/31 11:44:16;;;;;;;1.65;1.20;;;15.40;99.90;;;;;;5070814;28;20201;-78
2023/07/31 11:46:47;;;;;;;2.00;1.10;;;15.30;99.90;;;;;;5062979;28;20209;-78
2023/07/31 11:49:19;;;;;;;2.25;1.10;;;15.20;99.90;;;;;;5070768;28;20583;-78
2023/07/31 11:51:51;;;;;;;1.52;0.90;;;15.10;99.90;;;;;;5069934;28;20197;-78
2023/07/31 11:54:22;;;;;;;2.63;1.30;;;15.10;99.90;;;;;;5071848;28;20196;-79
2023/07/31 11:56:53;;;;;;;2.78;1.15;;;15.00;99.90;;;;;;5061742;28;20240;-78
2023/07/31 11:59:24;;;;;;;3.88;1.30;;;14.90;99.90;;;;;;5071368;28;20207;-77
2023/07/31 12:01:56;;;;;;;1.20;1.00;;;14.90;99.90;;;;;;5066518;28;20380;-77
2023/07/31 12:04:27;;;;;;;3.03;1.20;;;14.90;99.90;;;;;;5070883;28;20283;-78
2023/07/31 12:07:02;;;;;;;1.40;0.98;;;14.80;99.90;;;;;;5063151;28;20613;-78
2023/07/31 12:09:33;;;;;;;1.33;1.10;;;14.80;99.90;;;;;;5070043;28;20279;-78
2023/07/31 12:12:04;;;;;;;2.85;1.63;;;14.80;99.90;;;;;;5071240;28;20279;-77
2023/07/31 12:14:35;;;;;;;2.97;1.38;;;14.70;99.90;;;;;;5074973;28;20279;-78
2023/07/31 12:17:08;;;;;;;3.33;1.40;;;14.80;99.90;;;;;;5062988;28;20250;-78
2023/07/31 12:19:39;;;;;;;3.78;1.38;;;14.80;99.90;;;;;;5073929;28;20287;-78
2023/07/31 12:22:18;;;;;;;2.75;1.65;;;14.80;99.90;;;;;;5069151;28;20207;-77
2023/07/31 12:24:48;;;;;;;3.60;1.50;;;14.80;99.90;;;;;;5063034;28;20567;-82
2023/07/31 12:27:21;;;;;;;2.15;1.30;;;14.80;99.90;;;;;;5068639;28;20284;-84
2023/07/31 12:29:52;;;;;;;2.85;1.40;;;14.80;99.90;;;;;;5064347;28;20262;-83
2023/07/31 12:32:28;;;;;;;3.67;1.60;;;14.70;99.90;;;;;;5061518;28;20711;-83
2023/07/31 12:35:03;;;;;;;4.18;1.40;;;14.60;99.90;;;;;;5064107;28;20192;-83
2023/07/31 12:37:36;;;;;;;2.28;1.58;;;14.50;99.90;;;;;;5076605;28;20208;-76
2023/07/31 12:40:08;;;;;;;3.15;1.50;;;14.40;99.90;;;;;;5076411;28;20204;-78
2023/07/31 12:42:38;;;;;;;3.08;1.70;;;14.20;99.90;;;;;;5076582;28;20271;-78
2023/07/31 12:45:10;;;;;;;4.03;1.95;;;14.20;99.90;;;;;;5067449;28;20189;-77
2023/07/31 12:47:41;;;;;;;3.42;1.90;;;14.10;99.90;;;;;;5069950;28;20186;-77
2023/07/31 12:50:12;;;;;;;4.53;1.80;;;14.00;99.90;;;;;;5069998;28;20552;-78
2023/07/31 12:52:44;;;;;;;5.07;1.88;;;13.90;99.90;;;;;;5064518;28;20288;-78
2023/07/31 12:55:15;;;;;;;2.85;1.75;;;13.90;99.90;;;;;;5075597;28;20193;-77
2023/07/31 12:57:46;;;;;;;3.80;1.80;;;13.80;99.90;;;;;;5062971;28;20186;-77
2023/07/31 13:00:17;;;;;;;2.08;1.70;;;13.80;99.90;;;;;;5076757;28;20193;-77
2023/07/31 13:02:48;;;;;;;2.72;1.65;;;13.80;99.90;;;;;;5065642;28;20233;-75
2023/07/31 13:05:20;;;;;;;4.47;1.77;;;13.80;99.90;;;;;;5055863;28;20557;-78
2023/07/31 13:07:52;;;;;;;5.05;1.40;;;13.80;99.90;;;;;;5059376;28;20188;-76
2023/07/31 13:10:26;;;;;;;2.80;1.52;;;13.90;99.90;;;;;;5063298;28;20202;-74
2023/07/31 13:12:57;;;;;;;3.58;1.60;;;13.80;99.90;;;;;;5058479;28;20194;-76